createdAt,value
2022-08-24T00:01:22.731Z,55.01
2022-08-24T00:03:54.196Z,55.59
2022-08-24T00:06:26.225Z,55.21
2022-08-24T00:08:55.573Z,55.50
2022-08-24T00:11:23.783Z,55.83
2022-08-24T00:13:51.682Z,55.40
2022-08-24T00:16:20.747Z,55.80
2022-08-24T00:18:49.539Z,55.39
2022-08-24T00:21:18.968Z,55.67
2022-08-24T00:23:49.816Z,55.26
2022-08-24T00:26:19.391Z,55.72
2022-08-24T00:28:57.870Z,55.87
2022-08-24T00:31:26.219Z,55.17
2022-08-24T00:33:54.435Z,55.77
2022-08-24T00:36:22.645Z,55.52
2022-08-24T00:38:52.118Z,55.65
2022-08-24T00:41:20.000Z,55.71
2022-08-24T00:43:55.926Z,55.77
2022-08-24T00:46:27.691Z,55.95
2022-08-24T00:49:04.381Z,55.64
2022-08-24T00:51:37.152Z,55.96
2022-08-24T00:54:11.812Z,56.01
2022-08-24T00:56:43.798Z,56.03
2022-08-24T00:59:14.986Z,55.68
2022-08-24T01:01:43.997Z,55.92
2022-08-24T01:04:19.554Z,56.11
2022-08-24T01:06:49.895Z,56.00
2022-08-24T01:09:19.415Z,56.62
2022-08-24T01:11:47.518Z,56.53
2022-08-24T01:14:15.402Z,56.10
2022-08-24T01:17:00.598Z,56.35
2022-08-24T01:19:36.607Z,56.37
2022-08-24T01:22:17.282Z,56.42
2022-08-24T01:24:47.475Z,56.48
2022-08-24T01:27:17.525Z,56.45
2022-08-24T01:29:49.107Z,56.66
2022-08-24T01:32:27.877Z,56.42
2022-08-24T01:34:56.762Z,56.61
2022-08-24T01:37:25.307Z,56.71
2022-08-24T01:39:57.529Z,56.80
2022-08-24T01:42:29.857Z,56.57
2022-08-24T01:44:58.271Z,56.53
2022-08-24T01:47:26.120Z,56.75
2022-08-24T01:49:54.032Z,56.68
2022-08-24T01:52:25.009Z,56.77
2022-08-24T01:54:54.529Z,56.49
2022-08-24T01:57:26.473Z,56.63
2022-08-24T01:59:55.054Z,56.57
2022-08-24T02:02:28.743Z,56.68
2022-08-24T02:04:56.705Z,56.68
2022-08-24T02:07:25.013Z,56.98
2022-08-24T02:09:54.544Z,56.98
2022-08-24T02:12:23.046Z,57.23
2022-08-24T02:14:51.762Z,56.98
2022-08-24T02:17:22.060Z,57.13
2022-08-24T02:19:49.915Z,56.92
2022-08-24T02:22:17.946Z,57.08
2022-08-24T02:24:45.774Z,57.06
2022-08-24T02:27:16.984Z,57.16
2022-08-24T02:29:45.505Z,56.99
2022-08-24T02:32:13.836Z,57.16
2022-08-24T02:34:43.384Z,57.42
2022-08-24T02:37:11.238Z,57.01
2022-08-24T02:39:39.090Z,57.09
2022-08-24T02:42:07.585Z,57.29
2022-08-24T02:44:36.787Z,57.32
2022-08-24T02:47:04.865Z,57.21
2022-08-24T02:49:33.033Z,57.48
2022-08-24T02:52:00.904Z,57.33
2022-08-24T02:54:28.943Z,57.05
2022-08-24T02:56:56.757Z,57.11
2022-08-24T02:59:24.978Z,57.24
2022-08-24T03:01:54.559Z,57.41
2022-08-24T03:04:22.554Z,57.17
2022-08-24T03:06:51.591Z,57.34
2022-08-24T03:09:19.848Z,57.23
2022-08-24T03:11:51.995Z,57.18
2022-08-24T03:14:19.917Z,57.28
2022-08-24T03:16:47.734Z,57.35
2022-08-24T03:19:17.218Z,57.40
2022-08-24T03:21:45.055Z,57.44
2022-08-24T03:24:13.098Z,57.46
2022-08-24T03:26:44.315Z,57.38
2022-08-24T03:29:12.365Z,57.54
2022-08-24T03:31:40.237Z,57.61
2022-08-24T03:34:08.416Z,57.45
2022-08-24T03:36:37.583Z,57.83
2022-08-24T03:39:05.546Z,57.70
2022-08-24T03:41:33.802Z,57.60
2022-08-24T03:44:05.235Z,57.58
2022-08-24T03:46:37.404Z,57.69
2022-08-24T03:49:08.186Z,57.85
2022-08-24T03:51:38.830Z,57.67
2022-08-24T03:54:09.604Z,57.59
2022-08-24T03:56:37.553Z,57.64
2022-08-24T03:59:05.809Z,57.61
2022-08-24T04:01:33.667Z,57.52
2022-08-24T04:04:01.887Z,57.58
2022-08-24T04:06:30.401Z,57.82
2022-08-24T04:08:59.653Z,57.61
2022-08-24T04:11:30.461Z,57.86
2022-08-24T04:13:59.416Z,57.68
2022-08-24T04:16:29.478Z,57.51
2022-08-24T04:18:58.377Z,57.51
2022-08-24T04:21:28.549Z,57.80
2022-08-24T04:23:57.529Z,57.77
2022-08-24T04:26:44.866Z,58.06
2022-08-24T04:29:16.844Z,57.94
2022-08-24T04:31:45.293Z,57.87
2022-08-24T04:34:15.028Z,58.18
2022-08-24T04:36:43.890Z,58.40
2022-08-24T04:39:12.122Z,57.82
2022-08-24T04:41:42.929Z,58.13
2022-08-24T04:44:11.373Z,58.27
2022-08-24T04:46:40.716Z,58.13
2022-08-24T04:49:08.560Z,58.37
2022-08-24T04:51:36.938Z,58.26
2022-08-24T04:54:05.630Z,58.25
2022-08-24T04:56:33.861Z,58.26
2022-08-24T04:59:03.859Z,58.25
2022-08-24T05:01:32.962Z,58.16
2022-08-24T05:04:01.187Z,58.31
2022-08-24T05:06:32.401Z,58.42
2022-08-24T05:09:01.714Z,58.30
2022-08-24T05:11:30.001Z,58.45
2022-08-24T05:13:58.623Z,58.65
2022-08-24T05:16:30.714Z,58.45
2022-08-24T05:19:00.631Z,58.66
2022-08-24T05:21:30.881Z,58.67
2022-08-24T05:23:58.799Z,58.69
2022-08-24T05:26:28.546Z,58.79
2022-08-24T05:28:57.879Z,58.92
2022-08-24T05:31:29.445Z,58.79
2022-08-24T05:33:57.980Z,58.83
2022-08-24T05:36:30.516Z,59.07
2022-08-24T05:39:01.555Z,59.11
2022-08-24T05:41:30.011Z,59.01
2022-08-24T05:43:59.821Z,59.19
2022-08-24T05:46:31.874Z,59.30
2022-08-24T05:49:01.256Z,59.14
2022-08-24T05:51:29.938Z,59.64
2022-08-24T05:53:59.229Z,59.67
2022-08-24T05:56:31.793Z,59.80
2022-08-24T05:59:00.172Z,60.04
2022-08-24T06:01:29.778Z,60.42
2022-08-24T06:03:58.838Z,60.28
2022-08-24T06:06:28.010Z,60.46
2022-08-24T06:08:57.588Z,60.51
2022-08-24T06:11:30.215Z,60.58
2022-08-24T06:14:01.097Z,60.89
2022-08-24T06:16:30.498Z,60.78
2022-08-24T06:18:58.707Z,61.06
2022-08-24T06:21:28.737Z,60.72
2022-08-24T06:23:57.258Z,60.87
2022-08-24T06:26:43.094Z,60.66
2022-08-24T06:29:13.242Z,60.61
2022-08-24T06:31:46.798Z,60.37
2022-08-24T06:34:17.898Z,60.18
2022-08-24T06:36:46.358Z,60.39
2022-08-24T06:39:15.003Z,60.37
2022-08-24T06:41:44.197Z,60.58
2022-08-24T06:44:12.377Z,60.49
2022-08-24T06:46:40.549Z,60.87
2022-08-24T06:49:09.871Z,60.68
2022-08-24T06:51:37.677Z,61.02
2022-08-24T06:54:06.853Z,61.29
2022-08-24T06:56:36.745Z,60.47
2022-08-24T06:59:04.981Z,60.95
2022-08-24T07:01:33.169Z,61.26
2022-08-24T07:04:00.991Z,61.17
2022-08-24T07:06:30.167Z,61.07
2022-08-24T07:08:58.084Z,61.75
2022-08-24T07:11:26.093Z,61.97
2022-08-24T07:13:53.854Z,62.21
2022-08-24T07:16:22.499Z,62.48
2022-08-24T07:18:51.347Z,62.48
2022-08-24T07:21:19.979Z,62.02
2022-08-24T07:23:49.928Z,62.32
2022-08-24T07:26:22.328Z,62.42
2022-08-24T07:28:51.511Z,62.20
2022-08-24T07:31:21.212Z,62.40
2022-08-24T07:33:49.712Z,62.37
2022-08-24T07:36:22.435Z,62.01
2022-08-24T07:38:53.530Z,62.23
2022-08-24T07:44:11.282Z,61.87
2022-08-24T07:46:40.122Z,61.28
2022-08-24T07:49:28.042Z,60.60
2022-08-24T07:51:57.179Z,61.37
2022-08-24T07:54:27.572Z,61.02
2022-08-24T07:56:55.685Z,61.14
2022-08-24T07:59:23.790Z,61.05
2022-08-24T08:01:52.951Z,60.88
2022-08-24T08:04:25.317Z,61.50
2022-08-24T08:06:53.496Z,60.88
2022-08-24T08:09:21.858Z,60.69
2022-08-24T08:11:51.184Z,60.44
2022-08-24T08:14:19.042Z,60.00
2022-08-24T08:16:47.086Z,59.68
2022-08-24T08:19:14.917Z,59.87
2022-08-24T08:22:02.136Z,59.32
2022-08-24T08:24:31.321Z,59.84
2022-08-24T08:27:00.797Z,59.82
2022-08-24T08:29:32.063Z,59.57
2022-08-24T08:32:00.503Z,60.36
2022-08-24T08:34:28.805Z,60.31
2022-08-24T08:36:56.780Z,60.20
2022-08-24T08:39:25.831Z,60.20
2022-08-24T08:42:30.269Z,60.16
2022-08-24T08:45:08.913Z,60.11
2022-08-24T08:48:05.224Z,60.21
2022-08-24T08:50:39.858Z,59.62
2022-08-24T08:53:41.867Z,59.33
2022-08-24T08:56:20.824Z,59.62
2022-08-24T08:59:04.237Z,59.97
2022-08-24T09:01:46.508Z,59.88
2022-08-24T09:04:47.341Z,59.61
2022-08-24T09:07:28.080Z,59.70
2022-08-24T09:10:21.849Z,59.27
2022-08-24T09:13:04.251Z,59.24
2022-08-24T09:15:57.648Z,58.91
2022-08-24T09:18:41.471Z,57.72
2022-08-24T09:21:35.308Z,57.97
2022-08-24T09:24:20.837Z,57.56
2022-08-24T09:26:53.320Z,58.49
2022-08-24T09:29:45.727Z,55.68
2022-08-24T09:32:35.608Z,54.62
2022-08-24T09:35:05.601Z,54.04
2022-08-24T09:37:57.672Z,54.49
2022-08-24T09:40:38.034Z,53.42
2022-08-24T09:43:37.889Z,53.63
2022-08-24T09:46:41.367Z,52.96
2022-08-24T09:49:39.554Z,50.16
2022-08-24T09:52:36.249Z,51.65
2022-08-24T09:55:36.529Z,51.13
2022-08-24T09:58:19.781Z,50.26
2022-08-24T10:00:52.245Z,49.84
2022-08-24T10:03:37.884Z,50.19
2022-08-24T10:06:18.115Z,49.41
2022-08-24T10:09:02.984Z,47.69
2022-08-24T10:11:40.471Z,49.22
2022-08-24T10:14:17.683Z,48.33
2022-08-24T10:16:56.309Z,48.59
2022-08-24T10:19:41.296Z,49.11
2022-08-24T10:22:20.921Z,48.44
2022-08-24T10:25:04.243Z,47.08
2022-08-24T10:27:46.602Z,47.06
2022-08-24T10:30:42.230Z,47.18
2022-08-24T10:33:18.873Z,46.25
2022-08-24T10:36:23.547Z,47.25
2022-08-24T10:39:15.124Z,45.53
2022-08-24T10:42:33.613Z,46.11
2022-08-24T10:45:08.297Z,45.23
2022-08-24T10:47:37.636Z,44.67
2022-08-24T10:50:32.372Z,45.50
2022-08-24T10:53:25.420Z,45.58
2022-08-24T10:56:17.533Z,44.69
2022-08-24T10:58:52.065Z,44.23
2022-08-24T11:01:27.756Z,43.41
2022-08-24T11:04:04.417Z,44.38
2022-08-24T11:06:34.713Z,41.90
2022-08-24T11:09:09.483Z,42.61
2022-08-24T11:11:40.416Z,42.44
2022-08-24T11:14:24.449Z,41.47
2022-08-24T11:16:57.548Z,42.24
2022-08-24T11:19:35.034Z,43.17
2022-08-24T11:22:05.673Z,42.74
2022-08-24T11:24:43.242Z,42.30
2022-08-24T11:27:30.943Z,40.06
2022-08-24T11:30:03.930Z,40.05
2022-08-24T11:32:38.791Z,40.39
2022-08-24T11:35:15.955Z,41.08
2022-08-24T11:37:45.518Z,41.79
2022-08-24T11:40:16.530Z,39.93
2022-08-24T11:43:06.096Z,39.52
2022-08-24T11:45:42.799Z,39.37
2022-08-24T11:48:27.255Z,40.49
2022-08-24T11:51:04.854Z,40.39
2022-08-24T11:56:21.613Z,40.73
2022-08-24T11:59:02.685Z,39.19
2022-08-24T12:01:43.557Z,39.14
2022-08-24T12:04:30.362Z,37.96
2022-08-24T12:07:03.978Z,38.60
2022-08-24T12:09:48.071Z,38.94
2022-08-24T12:12:23.176Z,38.23
2022-08-24T12:15:00.507Z,38.00
2022-08-24T12:17:38.165Z,38.09
2022-08-24T12:20:16.440Z,38.59
2022-08-24T12:22:44.927Z,37.39
2022-08-24T12:25:28.390Z,36.72
2022-08-24T12:27:58.512Z,36.75
2022-08-24T12:30:28.743Z,36.51
2022-08-24T12:33:01.913Z,36.45
2022-08-24T12:35:33.496Z,36.26
2022-08-24T12:38:09.145Z,36.12
2022-08-24T12:40:41.674Z,36.67
2022-08-24T12:43:14.872Z,36.45
2022-08-24T12:45:43.316Z,36.61
2022-08-24T12:48:20.038Z,35.74
2022-08-24T12:51:04.123Z,36.14
2022-08-24T12:54:04.792Z,35.89
2022-08-24T12:56:57.451Z,35.95
2022-08-24T12:59:29.450Z,36.14
2022-08-24T13:02:03.132Z,35.41
2022-08-24T13:04:44.571Z,35.96
2022-08-24T13:07:27.838Z,35.58
2022-08-24T13:10:09.104Z,35.64
2022-08-24T13:13:13.698Z,36.20
2022-08-24T13:16:01.078Z,36.10
2022-08-24T13:19:09.211Z,35.08
2022-08-24T13:21:45.565Z,35.54
2022-08-24T13:24:52.917Z,35.47
2022-08-24T13:28:03.779Z,35.65
2022-08-24T13:30:38.864Z,35.40
2022-08-24T13:33:13.180Z,35.85
2022-08-24T13:36:07.382Z,36.18
2022-08-24T13:39:04.771Z,34.87
2022-08-24T13:41:47.878Z,35.58
2022-08-24T13:44:25.633Z,34.26
2022-08-24T13:47:04.225Z,34.56
2022-08-24T13:50:01.856Z,34.59
2022-08-24T13:52:40.467Z,35.01
2022-08-24T13:55:29.785Z,35.23
2022-08-24T13:58:12.266Z,33.97
2022-08-24T14:00:45.391Z,34.00
2022-08-24T14:03:54.016Z,33.76
2022-08-24T14:06:33.203Z,34.29
2022-08-24T14:09:19.385Z,34.37
2022-08-24T14:12:07.573Z,35.38
2022-08-24T14:15:06.812Z,35.96
2022-08-24T14:17:55.027Z,36.15
2022-08-24T14:20:51.206Z,35.51
2022-08-24T14:23:28.576Z,34.88
2022-08-24T14:26:29.699Z,34.48
2022-08-24T14:29:46.582Z,34.08
2022-08-24T14:32:50.345Z,33.66
2022-08-24T14:35:33.332Z,34.68
2022-08-24T14:38:22.909Z,34.79
2022-08-24T14:41:08.634Z,34.84
2022-08-24T14:44:04.014Z,35.29
2022-08-24T14:46:39.255Z,35.63
2022-08-24T14:49:16.382Z,35.74
2022-08-24T14:52:04.365Z,35.07
2022-08-24T14:54:42.585Z,36.14
2022-08-24T14:57:39.531Z,36.59
2022-08-24T15:00:14.851Z,38.30
2022-08-24T15:03:09.547Z,38.72
2022-08-24T15:05:42.907Z,39.77
2022-08-24T15:08:16.309Z,40.49
2022-08-24T15:10:57.425Z,40.48
2022-08-24T15:13:29.778Z,41.65
2022-08-24T15:16:04.658Z,41.86
2022-08-24T15:18:41.143Z,42.12
2022-08-24T15:21:30.490Z,41.09
2022-08-24T15:24:10.201Z,40.13
2022-08-24T15:26:51.271Z,41.72
2022-08-24T15:29:22.464Z,42.76
2022-08-24T15:32:01.560Z,43.64
2022-08-24T15:34:45.525Z,44.16
2022-08-24T15:37:16.110Z,45.55
2022-08-24T15:39:44.875Z,45.57
2022-08-24T15:42:15.521Z,46.01
2022-08-24T15:44:46.545Z,45.53
2022-08-24T15:47:22.478Z,45.17
2022-08-24T15:49:55.604Z,45.35
2022-08-24T15:52:46.310Z,44.42
2022-08-24T15:55:29.056Z,44.53
2022-08-24T15:57:58.094Z,44.64
2022-08-24T16:00:55.293Z,42.42
2022-08-24T16:03:28.960Z,42.26
2022-08-24T16:06:17.164Z,40.04
2022-08-24T16:08:57.613Z,41.14
2022-08-24T16:11:33.503Z,41.69
2022-08-24T16:14:02.424Z,42.40
2022-08-24T16:16:38.474Z,43.80
2022-08-24T16:19:18.601Z,41.71
2022-08-24T16:21:55.000Z,40.83
2022-08-24T16:24:31.245Z,39.85
2022-08-24T16:27:04.237Z,42.82
2022-08-24T16:29:55.877Z,43.34
2022-08-24T16:32:32.365Z,44.70
2022-08-24T16:35:20.628Z,44.69
2022-08-24T16:37:49.018Z,45.62
2022-08-24T16:40:16.963Z,46.18
2022-08-24T16:42:44.811Z,47.31
2022-08-24T16:45:17.314Z,46.56
2022-08-24T16:47:46.852Z,46.42
2022-08-24T16:50:19.145Z,47.01
2022-08-24T16:52:47.493Z,47.51
2022-08-24T16:55:15.305Z,47.54
2022-08-24T16:57:44.214Z,47.82
2022-08-24T17:00:17.136Z,48.28
2022-08-24T17:02:46.217Z,47.81
2022-08-24T17:05:14.244Z,47.73
2022-08-24T17:07:44.944Z,48.57
2022-08-24T17:10:15.861Z,48.72
2022-08-24T17:12:43.678Z,48.94
2022-08-24T17:15:16.253Z,48.94
2022-08-24T17:17:56.139Z,48.71
2022-08-24T17:20:24.340Z,49.57
2022-08-24T17:22:53.517Z,49.51
2022-08-24T17:25:21.362Z,48.82
2022-08-24T17:27:49.374Z,49.51
2022-08-24T17:30:18.526Z,49.66
2022-08-24T17:32:48.076Z,50.28
2022-08-24T17:35:16.057Z,50.66
2022-08-24T17:37:44.515Z,50.79
2022-08-24T17:40:17.151Z,50.23
2022-08-24T17:42:51.334Z,51.30
2022-08-24T17:45:23.006Z,51.17
2022-08-24T17:47:52.436Z,51.39
2022-08-24T17:50:23.628Z,51.82
2022-08-24T17:52:57.121Z,51.09
2022-08-24T17:55:30.105Z,50.48
2022-08-24T17:57:59.109Z,50.82
2022-08-24T18:00:26.892Z,51.36
2022-08-24T18:02:54.758Z,51.72
2022-08-24T18:05:22.530Z,51.60
2022-08-24T18:07:54.698Z,51.53
2022-08-24T18:10:26.153Z,52.21
2022-08-24T18:12:55.974Z,51.89
2022-08-24T18:15:35.550Z,51.78
2022-08-24T18:18:08.643Z,52.00
2022-08-24T18:20:39.210Z,52.04
2022-08-24T18:23:11.602Z,52.10
2022-08-24T18:25:44.988Z,52.77
2022-08-24T18:28:16.106Z,52.68
2022-08-24T18:30:44.949Z,52.39
2022-08-24T18:33:12.988Z,52.65
2022-08-24T18:35:40.921Z,52.29
2022-08-24T18:38:08.718Z,52.87
2022-08-24T18:40:36.948Z,52.64
2022-08-24T18:43:05.448Z,52.95
2022-08-24T18:45:35.662Z,52.67
2022-08-24T18:48:04.142Z,52.80
2022-08-24T18:50:33.330Z,52.38
2022-08-24T18:53:02.156Z,52.22
2022-08-24T18:55:30.837Z,52.42
2022-08-24T18:57:58.633Z,52.38
2022-08-24T19:00:26.616Z,51.69
2022-08-24T19:02:59.156Z,52.08
2022-08-24T19:05:27.322Z,51.71
2022-08-24T19:07:55.798Z,52.41
2022-08-24T19:10:26.090Z,52.42
2022-08-24T19:12:57.476Z,52.48
2022-08-24T19:15:35.887Z,52.07
2022-08-24T19:18:11.242Z,52.22
2022-08-24T19:20:44.726Z,51.82
2022-08-24T19:23:21.607Z,51.66
2022-08-24T19:25:49.993Z,51.84
2022-08-24T19:28:18.754Z,51.50
2022-08-24T19:30:47.048Z,51.86
2022-08-24T19:33:24.265Z,51.88
2022-08-24T19:35:53.420Z,51.57
2022-08-24T19:38:25.871Z,51.62
2022-08-24T19:40:55.546Z,51.85
2022-08-24T19:43:26.176Z,51.42
2022-08-24T19:46:05.724Z,51.22
2022-08-24T19:48:40.253Z,51.47
2022-08-24T19:51:11.711Z,51.72
2022-08-24T19:53:39.770Z,51.81
2022-08-24T19:56:08.837Z,51.65
2022-08-24T19:58:45.515Z,51.27
2022-08-24T20:01:18.337Z,52.04
2022-08-24T20:03:48.107Z,51.88
2022-08-24T20:06:17.456Z,51.88
2022-08-24T20:08:48.512Z,51.65
2022-08-24T20:11:17.238Z,52.05
2022-08-24T20:13:45.467Z,52.07
2022-08-24T20:16:17.051Z,51.75
2022-08-24T20:18:45.930Z,51.76
2022-08-24T20:21:15.895Z,51.94
2022-08-24T20:23:45.424Z,52.04
2022-08-24T20:26:14.310Z,52.25
2022-08-24T20:28:46.272Z,52.03
2022-08-24T20:31:14.822Z,52.49
2022-08-24T20:33:44.125Z,51.94
2022-08-24T20:36:25.600Z,52.22
2022-08-24T20:38:56.592Z,52.10
2022-08-24T20:41:26.780Z,52.44
2022-08-24T20:43:55.008Z,52.44
2022-08-24T20:46:23.118Z,52.27
2022-08-24T20:48:55.610Z,52.49
2022-08-24T20:51:25.565Z,52.32
2022-08-24T20:53:53.929Z,52.44
2022-08-24T20:56:31.200Z,52.23
2022-08-24T20:59:00.180Z,52.72
2022-08-24T21:01:28.220Z,52.63
2022-08-24T21:03:58.459Z,52.67
2022-08-24T21:06:30.899Z,52.71
2022-08-24T21:08:58.739Z,52.74
2022-08-24T21:11:26.783Z,52.91
2022-08-24T21:13:54.596Z,52.84
2022-08-24T21:16:22.543Z,52.87
2022-08-24T21:18:50.794Z,52.97
2022-08-24T21:21:18.793Z,53.19
2022-08-24T21:23:47.976Z,52.98
2022-08-24T21:26:20.206Z,53.14
2022-08-24T21:28:49.902Z,53.11
2022-08-24T21:31:18.171Z,53.25
2022-08-24T21:34:03.396Z,53.22
2022-08-24T21:36:32.247Z,53.04
2022-08-24T21:39:01.458Z,53.34
2022-08-24T21:41:29.525Z,53.21
2022-08-24T21:43:57.891Z,53.21
2022-08-24T21:46:30.849Z,53.29
2022-08-24T21:48:58.976Z,53.33
2022-08-24T21:51:26.806Z,53.31
2022-08-24T21:53:57.446Z,53.55
2022-08-24T21:56:31.636Z,53.58
2022-08-24T21:59:00.249Z,53.76
2022-08-24T22:01:28.899Z,53.48
2022-08-24T22:03:58.217Z,53.56
2022-08-24T22:06:31.051Z,53.74
2022-08-24T22:08:59.590Z,53.76
2022-08-24T22:11:30.164Z,53.73
2022-08-24T22:13:58.245Z,53.84
2022-08-24T22:16:26.748Z,53.78
2022-08-24T22:18:55.445Z,53.84
2022-08-24T22:21:27.874Z,54.06
2022-08-24T22:23:56.893Z,53.97
2022-08-24T22:26:26.194Z,53.78
2022-08-24T22:28:56.709Z,53.94
2022-08-24T22:31:27.522Z,54.03
2022-08-24T22:33:56.201Z,53.99
2022-08-24T22:36:25.410Z,53.91
2022-08-24T22:38:54.981Z,53.75
2022-08-24T22:41:23.465Z,54.19
2022-08-24T22:44:09.136Z,54.34
2022-08-24T22:46:39.327Z,53.54
2022-08-24T22:49:08.983Z,54.01
2022-08-24T22:51:38.242Z,54.17
2022-08-24T22:54:06.498Z,54.22
2022-08-24T22:56:38.987Z,54.26
2022-08-24T22:59:08.749Z,53.98
2022-08-24T23:01:40.447Z,54.25
2022-08-24T23:04:11.627Z,53.93
2022-08-24T23:06:40.891Z,54.61
2022-08-24T23:09:09.940Z,54.61
2022-08-24T23:11:38.272Z,54.54
2022-08-24T23:14:09.342Z,54.49
2022-08-24T23:16:40.273Z,54.91
2022-08-24T23:19:26.782Z,54.38
2022-08-24T23:21:55.547Z,54.70
2022-08-24T23:24:23.762Z,54.63
2022-08-24T23:26:52.793Z,54.77
2022-08-24T23:29:21.712Z,54.52
2022-08-24T23:31:50.983Z,54.43
2022-08-24T23:34:19.115Z,54.61
2022-08-24T23:36:47.053Z,54.50
2022-08-24T23:39:15.082Z,54.95
2022-08-24T23:41:46.130Z,54.77
2022-08-24T23:44:17.619Z,55.14
2022-08-24T23:46:46.935Z,54.97
2022-08-24T23:49:18.356Z,54.85
2022-08-24T23:51:46.984Z,55.16
2022-08-24T23:54:14.998Z,54.75
2022-08-24T23:56:46.190Z,55.22
2022-08-24T23:59:20.138Z,55.48
